Flight Briefing for CMB839

Departure Arrival
Yokota AFB (RJTY)
Click to view FAA NOTAMS
Elmendorf Air Force Base (PAED)
Click to view FAA NOTAMS
Departure Time Arrival Time
N/A N/A
Aircraft Distance
B757-200SF 3017nm
Departure METAR Arrival METAR
RJTY 260009Z AUTO 02005KT 10SM CLR 10/02 A2996 RMK AO2 DZE09 SLP152 FZRANO $ PAED 252356Z 30004KT 10SM FEW050 BKN200 06/00 A3020 RMK AO2A SLP224 T00640001 10066 20033
Suggested Route
DAIGO Y889 OATIS OTR3 PUTER A590 HAMND SPAIR GRUUB1


View recent IFR Routes data
Notes
USTRANSCOM CONTRACT FLIGHT

Charts and Procedures

Charts for RJTY
No chart available
Charts for PAED
No chart available

Windy.com Weather Map